Time;durP1;ratioP1;P1;durP2;ratioP2;P2;SDS_P1;SDS_P2;PMS_P1;PMS_P2;Temp;Humidity;BMP_temperature;BMP_pressure;BME280_temperature;BME280_humidity;BME280_pressure;Samples;Min_cycle;Max_cycle;Signal;HPM_P1;HPM_P2
2022/08/12 00:44:35;;;;;;;3.55;2.90;;;;;;;;;;4964755;28;20056;-62
2022/08/12 00:47:00;;;;;;;3.15;2.80;;;;;;;;;;4959814;28;20031;-62
2022/08/12 00:49:27;;;;;;;3.13;2.92;;;;;;;;;;4948838;28;20035;-62
2022/08/12 00:52:05;;;;;;;3.17;2.88;;;;;;;;;;4961021;28;20169;-62
2022/08/12 00:54:30;;;;;;;4.43;2.90;;;;;;;;;;4958019;28;20030;-62
2022/08/12 00:56:57;;;;;;;3.90;2.83;;;;;;;;;;4962348;28;20511;-62
2022/08/12 00:59:23;;;;;;;4.18;2.85;;;;;;;;;;4964147;28;20034;-62
2022/08/12 01:01:49;;;;;;;2.80;2.53;;;;;;;;;;4957340;28;20501;-62
2022/08/12 01:12:31;;;;;;;3.45;2.50;;;;;;;;;;4959445;28;20748;-60
2022/08/12 01:14:56;;;;;;;4.43;3.58;;;;;;;;;;4972226;28;20640;-60
2022/08/12 01:17:22;;;;;;;2.90;2.70;;;;;;;;;;4961253;28;20035;-60
2022/08/12 01:19:50;;;;;;;2.83;2.63;;;;;;;;;;4956663;28;20158;-60
2022/08/12 01:22:25;;;;;;;3.03;2.72;;;;;;;;;;4964732;28;20019;-61
2022/08/12 01:24:59;;;;;;;4.22;3.83;;;;;;;;;;4965896;28;20046;-61
2022/08/12 01:27:26;;;;;;;4.07;2.70;;;;;;;;;;4961700;28;20103;-61
2022/08/12 01:29:51;;;;;;;2.65;2.47;;;;;;;;;;4988298;28;20149;-60
2022/08/12 01:32:19;;;;;;;3.08;2.70;;;;;;;;;;4987474;28;20354;-61
2022/08/12 01:34:50;;;;;;;4.10;3.30;;;;;;;;;;4986723;28;20494;-60
2022/08/12 01:37:15;;;;;;;3.00;2.78;;;;;;;;;;4983130;28;20460;-60
2022/08/12 01:39:49;;;;;;;4.35;3.10;;;;;;;;;;4979757;28;20113;-62
2022/08/12 01:42:17;;;;;;;4.70;3.00;;;;;;;;;;4984920;28;20479;-60
2022/08/12 01:44:44;;;;;;;3.25;2.95;;;;;;;;;;4979910;28;20038;-60
2022/08/12 01:47:18;;;;;;;4.05;3.75;;;;;;;;;;4982370;28;20031;-61
2022/08/12 01:49:49;;;;;;;3.50;3.20;;;;;;;;;;4985867;28;20147;-61
2022/08/12 01:52:47;;;;;;;3.25;2.75;;;;;;;;;;4979749;28;20034;-60
2022/08/12 01:55:13;;;;;;;3.75;3.03;;;;;;;;;;4945247;28;20030;-60
2022/08/12 01:57:43;;;;;;;5.43;3.33;;;;;;;;;;4978699;28;20508;-60
2022/08/12 02:00:12;;;;;;;3.88;3.28;;;;;;;;;;4981818;28;20100;-60
2022/08/12 02:02:47;;;;;;;4.60;3.00;;;;;;;;;;4982919;28;20022;-61
2022/08/12 02:11:24;;;;;;;5.07;3.60;;;;;;;;;;4913140;29;20094;-63
2022/08/12 02:13:50;;;;;;;4.00;2.80;;;;;;;;;;4907580;29;20114;-61
2022/08/12 02:16:15;;;;;;;3.72;3.22;;;;;;;;;;4909951;29;20028;-60
2022/08/12 02:18:53;;;;;;;3.67;3.00;;;;;;;;;;4907895;29;20114;-61
2022/08/12 02:21:40;;;;;;;3.33;3.13;;;;;;;;;;4909735;29;20066;-62
2022/08/12 02:24:06;;;;;;;3.50;3.10;;;;;;;;;;4889006;29;20027;-62
2022/08/12 02:26:36;;;;;;;4.05;3.75;;;;;;;;;;4892292;29;20055;-64
2022/08/12 02:29:02;;;;;;;4.45;3.03;;;;;;;;;;4915900;29;20074;-64
2022/08/12 02:31:28;;;;;;;4.05;2.90;;;;;;;;;;4927771;29;20078;-64
2022/08/12 02:33:57;;;;;;;3.40;3.20;;;;;;;;;;4924796;29;20048;-63
2022/08/12 02:36:23;;;;;;;3.30;2.88;;;;;;;;;;4927883;29;20036;-64
2022/08/12 02:38:49;;;;;;;3.20;2.90;;;;;;;;;;4925671;29;20058;-64
2022/08/12 02:41:17;;;;;;;4.88;3.22;;;;;;;;;;4928445;29;20028;-64
2022/08/12 02:43:54;;;;;;;4.05;3.20;;;;;;;;;;4909462;29;20035;-64
2022/08/12 02:46:24;;;;;;;3.60;3.30;;;;;;;;;;4958206;28;20405;-63
2022/08/12 02:48:50;;;;;;;2.88;2.67;;;;;;;;;;4955287;28;20019;-64
2022/08/12 02:51:19;;;;;;;3.00;2.80;;;;;;;;;;4954657;28;20348;-64
2022/08/12 02:53:45;;;;;;;3.60;3.30;;;;;;;;;;4962837;28;20041;-63
2022/08/12 02:56:13;;;;;;;3.25;2.88;;;;;;;;;;4956340;28;20604;-64
2022/08/12 02:58:39;;;;;;;3.30;3.00;;;;;;;;;;4953917;28;20547;-64
2022/08/12 03:01:09;;;;;;;3.38;3.08;;;;;;;;;;4959226;28;20043;-64
2022/08/12 03:03:34;;;;;;;3.88;3.15;;;;;;;;;;4953728;28;20035;-64
2022/08/12 03:06:02;;;;;;;3.67;3.38;;;;;;;;;;4958863;28;20033;-62
2022/08/12 03:08:30;;;;;;;3.90;3.53;;;;;;;;;;4954093;28;20026;-61
2022/08/12 03:10:58;;;;;;;5.47;3.10;;;;;;;;;;4955088;28;20033;-61
2022/08/12 03:13:25;;;;;;;3.40;3.10;;;;;;;;;;4956449;28;20465;-62
2022/08/12 03:15:53;;;;;;;3.70;3.22;;;;;;;;;;4969235;28;20337;-62
2022/08/12 03:18:22;;;;;;;5.28;3.22;;;;;;;;;;4956365;28;20023;-60
2022/08/12 03:20:47;;;;;;;3.85;3.55;;;;;;;;;;4952479;28;20035;-57
2022/08/12 03:23:14;;;;;;;3.50;3.20;;;;;;;;;;4956105;28;20034;-63
2022/08/12 03:25:40;;;;;;;3.55;3.00;;;;;;;;;;4951503;28;20062;-68
2022/08/12 03:28:07;;;;;;;3.30;3.10;;;;;;;;;;4958301;28;20310;-63
2022/08/12 03:30:32;;;;;;;3.58;2.80;;;;;;;;;;4988827;28;20054;-60
2022/08/12 03:32:59;;;;;;;3.40;3.10;;;;;;;;;;4997747;28;20305;-60
2022/08/12 03:35:26;;;;;;;3.67;2.88;;;;;;;;;;4999426;28;20075;-59
2022/08/12 03:37:56;;;;;;;3.50;3.15;;;;;;;;;;4995952;28;20393;-60
2022/08/12 04:00:23;;;;;;;3.58;3.20;;;;;;;;;;4983790;28;20060;-60
2022/08/12 04:02:54;;;;;;;3.80;3.50;;;;;;;;;;4996805;28;20048;-60
2022/08/12 04:05:20;;;;;;;4.13;3.20;;;;;;;;;;4998007;28;20038;-59
2022/08/12 04:07:45;;;;;;;4.65;3.53;;;;;;;;;;4996875;28;20491;-60
2022/08/12 04:10:11;;;;;;;4.40;3.58;;;;;;;;;;4999453;28;20442;-59
2022/08/12 04:15:24;;;;;;;5.47;4.13;;;;;;;;;;5001315;28;20380;-60
2022/08/12 04:17:50;;;;;;;4.30;3.35;;;;;;;;;;4996523;28;20464;-59
2022/08/12 04:20:18;;;;;;;5.05;2.92;;;;;;;;;;5000042;28;20061;-60
2022/08/12 04:22:44;;;;;;;4.18;3.78;;;;;;;;;;4997805;28;20469;-59
2022/08/12 04:25:10;;;;;;;3.25;2.60;;;;;;;;;;5000209;28;20032;-59
2022/08/12 04:27:35;;;;;;;7.75;3.67;;;;;;;;;;4997644;28;20463;-60
2022/08/12 04:30:00;;;;;;;3.58;2.97;;;;;;;;;;4996198;28;20065;-60
2022/08/12 04:32:26;;;;;;;5.35;3.60;;;;;;;;;;5000455;28;20034;-59
2022/08/12 04:34:51;;;;;;;3.42;3.13;;;;;;;;;;4997885;28;20452;-60
2022/08/12 04:37:17;;;;;;;5.60;4.00;;;;;;;;;;4998858;28;20065;-61
2022/08/12 04:39:43;;;;;;;4.53;4.10;;;;;;;;;;4996113;28;20076;-59
2022/08/12 04:42:08;;;;;;;3.92;3.10;;;;;;;;;;5000209;28;20030;-60
2022/08/12 04:44:34;;;;;;;4.03;3.35;;;;;;;;;;5001042;28;20732;-61
2022/08/12 04:46:59;;;;;;;4.57;3.08;;;;;;;;;;4996498;28;20472;-59
2022/08/12 04:49:25;;;;;;;3.53;3.22;;;;;;;;;;4987068;28;20034;-59
2022/08/12 04:51:50;;;;;;;3.90;2.92;;;;;;;;;;4997730;28;20030;-59
2022/08/12 04:54:16;;;;;;;3.90;3.50;;;;;;;;;;4998601;28;20034;-60
2022/08/12 04:56:43;;;;;;;3.70;3.28;;;;;;;;;;5002687;28;20820;-60
2022/08/12 04:59:08;;;;;;;3.42;3.13;;;;;;;;;;4999843;28;20026;-60
2022/08/12 05:01:35;;;;;;;3.30;3.08;;;;;;;;;;5003893;28;20045;-60
2022/08/12 05:04:01;;;;;;;3.13;2.92;;;;;;;;;;4999786;28;20072;-59
2022/08/12 05:06:26;;;;;;;3.03;2.72;;;;;;;;;;5003896;28;20037;-59
2022/08/12 05:08:53;;;;;;;3.00;2.80;;;;;;;;;;5001085;28;20026;-59
2022/08/12 05:11:23;;;;;;;3.50;3.13;;;;;;;;;;5003541;28;20030;-60
2022/08/12 05:13:49;;;;;;;3.47;2.92;;;;;;;;;;5000014;28;20470;-60
2022/08/12 05:16:14;;;;;;;3.45;3.05;;;;;;;;;;5001171;28;20030;-60
2022/08/12 05:18:39;;;;;;;3.22;2.72;;;;;;;;;;5005939;28;20147;-61
2022/08/12 05:21:06;;;;;;;3.10;2.72;;;;;;;;;;4977177;28;20033;-60
2022/08/12 05:23:32;;;;;;;3.97;2.97;;;;;;;;;;5000347;28;20040;-60
2022/08/12 05:26:01;;;;;;;3.65;2.88;;;;;;;;;;5002007;28;20053;-60
2022/08/12 05:28:27;;;;;;;4.65;2.83;;;;;;;;;;5000002;28;20478;-58
2022/08/12 05:30:52;;;;;;;3.58;3.05;;;;;;;;;;5004029;28;20049;-61
2022/08/12 05:33:18;;;;;;;2.72;2.55;;;;;;;;;;5006203;28;20040;-60
2022/08/12 05:35:44;;;;;;;4.47;3.03;;;;;;;;;;5001569;28;20128;-60
2022/08/12 05:40:54;;;;;;;3.65;3.17;;;;;;;;;;5003486;28;20032;-59
2022/08/12 05:43:20;;;;;;;7.95;6.72;;;;;;;;;;5000347;28;20063;-61
2022/08/12 05:45:45;;;;;;;20.98;13.75;;;;;;;;;;5004127;28;20030;-59
2022/08/12 05:48:11;;;;;;;7.65;6.05;;;;;;;;;;5002970;28;20057;-59
2022/08/12 05:50:36;;;;;;;4.53;3.15;;;;;;;;;;4998854;28;20466;-59
2022/08/12 05:53:02;;;;;;;4.25;3.30;;;;;;;;;;5005157;28;20507;-60
2022/08/12 05:55:27;;;;;;;3.13;2.92;;;;;;;;;;5005340;28;20289;-60
2022/08/12 05:57:54;;;;;;;2.67;2.58;;;;;;;;;;5005931;28;20037;-59
2022/08/12 06:00:20;;;;;;;4.07;3.30;;;;;;;;;;4998912;28;20032;-59
2022/08/12 06:02:45;;;;;;;3.65;3.30;;;;;;;;;;4999522;28;20060;-60
2022/08/12 06:05:11;;;;;;;3.42;3.15;;;;;;;;;;4999861;28;20029;-59
2022/08/12 06:07:44;;;;;;;3.10;2.90;;;;;;;;;;4997497;28;20560;-60
2022/08/12 06:10:09;;;;;;;2.92;2.72;;;;;;;;;;5003494;28;20022;-59
2022/08/12 06:12:34;;;;;;;3.90;3.13;;;;;;;;;;4999372;28;20370;-60
2022/08/12 06:15:00;;;;;;;4.38;3.72;;;;;;;;;;4977886;28;20034;-60
2022/08/12 06:17:26;;;;;;;4.18;3.28;;;;;;;;;;5001323;28;20018;-59
2022/08/12 06:19:51;;;;;;;4.60;4.15;;;;;;;;;;4998976;28;20432;-60
2022/08/12 06:22:16;;;;;;;4.22;3.83;;;;;;;;;;5000873;28;20096;-64
2022/08/12 06:24:41;;;;;;;7.00;4.32;;;;;;;;;;4998870;28;20144;-62
2022/08/12 06:27:07;;;;;;;4.25;3.85;;;;;;;;;;4978238;28;20084;-62
2022/08/12 06:29:34;;;;;;;5.35;3.70;;;;;;;;;;5002539;28;20199;-62
2022/08/12 06:31:59;;;;;;;4.75;3.97;;;;;;;;;;4998878;28;20070;-62
2022/08/12 06:34:28;;;;;;;4.22;3.83;;;;;;;;;;5003042;28;20117;-63
2022/08/12 06:36:54;;;;;;;3.78;3.45;;;;;;;;;;5004979;28;20126;-62
2022/08/12 06:39:19;;;;;;;6.82;3.80;;;;;;;;;;4983379;28;20744;-63
2022/08/12 06:44:28;;;;;;;2.97;2.78;;;;;;;;;;5000506;28;20399;-66
2022/08/12 06:46:53;;;;;;;4.15;3.75;;;;;;;;;;4998350;28;20042;-68
2022/08/12 06:49:19;;;;;;;3.88;3.35;;;;;;;;;;5004007;28;20131;-66
2022/08/12 06:51:44;;;;;;;3.63;3.40;;;;;;;;;;5004963;28;20457;-66
2022/08/12 06:54:10;;;;;;;4.00;3.60;;;;;;;;;;5003621;28;20594;-66
2022/08/12 06:56:36;;;;;;;5.00;4.30;;;;;;;;;;5003546;28;20037;-65
2022/08/12 06:59:02;;;;;;;3.47;3.17;;;;;;;;;;4997724;28;20539;-67
2022/08/12 07:01:30;;;;;;;3.33;3.13;;;;;;;;;;4999774;28;20084;-66
2022/08/12 07:03:56;;;;;;;2.92;2.70;;;;;;;;;;5000010;28;20052;-66
2022/08/12 07:06:22;;;;;;;5.78;3.53;;;;;;;;;;4998366;28;20496;-67
2022/08/12 07:08:48;;;;;;;3.13;2.60;;;;;;;;;;4987943;28;20543;-65
2022/08/12 07:11:14;;;;;;;4.03;3.08;;;;;;;;;;4997512;28;20072;-67
2022/08/12 07:13:44;;;;;;;3.40;3.08;;;;;;;;;;5001117;28;20148;-66
2022/08/12 07:16:12;;;;;;;3.53;2.67;;;;;;;;;;5003400;28;20033;-67
2022/08/12 07:18:37;;;;;;;2.58;2.38;;;;;;;;;;5002222;28;20022;-67
2022/08/12 07:21:03;;;;;;;3.38;3.05;;;;;;;;;;5001042;28;20021;-67
2022/08/12 07:23:32;;;;;;;3.10;2.90;;;;;;;;;;4984449;28;20117;-67
2022/08/12 07:26:00;;;;;;;2.75;2.53;;;;;;;;;;5001104;28;20117;-65
2022/08/12 07:28:28;;;;;;;2.97;2.35;;;;;;;;;;4998134;28;20021;-67
2022/08/12 07:30:54;;;;;;;6.20;3.03;;;;;;;;;;5000457;28;20058;-67
2022/08/12 07:33:21;;;;;;;3.83;2.25;;;;;;;;;;5005092;28;20037;-68
2022/08/12 07:35:47;;;;;;;3.05;2.70;;;;;;;;;;5003651;28;20444;-68
2022/08/12 07:38:25;;;;;;;3.38;2.72;;;;;;;;;;5003823;28;20030;-67
2022/08/12 07:40:54;;;;;;;5.82;2.42;;;;;;;;;;5002013;28;20025;-67
2022/08/12 07:43:20;;;;;;;2.53;2.40;;;;;;;;;;4998590;28;20137;-64
2022/08/12 07:45:45;;;;;;;4.15;2.33;;;;;;;;;;5001000;28;20395;-69
2022/08/12 07:48:11;;;;;;;3.15;2.75;;;;;;;;;;4997477;28;20452;-69
2022/08/12 07:50:36;;;;;;;2.83;2.63;;;;;;;;;;4999142;28;20030;-69
2022/08/12 07:53:01;;;;;;;3.95;2.38;;;;;;;;;;4983305;28;20038;-67
2022/08/12 07:55:27;;;;;;;3.42;2.53;;;;;;;;;;4982810;28;20038;-68
2022/08/12 07:57:58;;;;;;;3.30;3.00;;;;;;;;;;5002377;28;20050;-69
2022/08/12 08:00:24;;;;;;;4.07;2.20;;;;;;;;;;4997020;28;20026;-70
2022/08/12 08:02:52;;;;;;;2.75;2.47;;;;;;;;;;4988985;28;20177;-69
2022/08/12 08:05:18;;;;;;;2.65;2.30;;;;;;;;;;4997029;28;20117;-69
2022/08/12 08:07:43;;;;;;;3.08;2.33;;;;;;;;;;4998727;28;20439;-69
2022/08/12 08:10:10;;;;;;;3.13;2.83;;;;;;;;;;4998894;28;20445;-70
2022/08/12 08:12:56;;;;;;;2.70;2.08;;;;;;;;;;4997507;28;20121;-69
2022/08/12 08:15:22;;;;;;;3.03;2.33;;;;;;;;;;5001703;28;20157;-69
2022/08/12 08:17:56;;;;;;;4.22;2.40;;;;;;;;;;4979708;28;20040;-69
2022/08/12 08:20:27;;;;;;;2.20;2.03;;;;;;;;;;5000688;28;20128;-69
2022/08/12 08:22:52;;;;;;;3.38;2.75;;;;;;;;;;4979871;28;20272;-69
2022/08/12 08:25:19;;;;;;;5.32;2.65;;;;;;;;;;4999309;28;20447;-69
2022/08/12 08:27:45;;;;;;;5.13;2.50;;;;;;;;;;4997414;28;20468;-68
2022/08/12 08:30:11;;;;;;;2.45;2.20;;;;;;;;;;4996929;28;20053;-68
2022/08/12 08:32:36;;;;;;;4.72;2.45;;;;;;;;;;4999614;28;20397;-69
2022/08/12 08:35:02;;;;;;;3.22;2.38;;;;;;;;;;4998103;28;20052;-69
2022/08/12 08:37:27;;;;;;;3.88;2.85;;;;;;;;;;5003532;28;20037;-70
2022/08/12 08:39:52;;;;;;;2.65;2.50;;;;;;;;;;4969106;28;20555;-72
2022/08/12 08:42:38;;;;;;;2.72;2.28;;;;;;;;;;4995606;28;20074;-70
2022/08/12 08:45:11;;;;;;;2.65;2.45;;;;;;;;;;5000079;28;20093;-69
2022/08/12 08:47:41;;;;;;;2.47;2.28;;;;;;;;;;4996548;28;20302;-70
2022/08/12 08:50:08;;;;;;;5.72;2.40;;;;;;;;;;4983362;28;20184;-70
2022/08/12 08:52:33;;;;;;;5.00;2.20;;;;;;;;;;5002442;28;20611;-70
2022/08/12 08:54:58;;;;;;;3.15;2.53;;;;;;;;;;5003639;28;20135;-70
2022/08/12 08:57:25;;;;;;;3.38;2.67;;;;;;;;;;5002684;28;20041;-69
2022/08/12 08:59:50;;;;;;;4.30;2.28;;;;;;;;;;5003748;28;20075;-70
2022/08/12 09:02:16;;;;;;;6.15;2.60;;;;;;;;;;4997688;28;20431;-70
2022/08/12 09:04:41;;;;;;;2.72;2.53;;;;;;;;;;4997233;28;20441;-69
2022/08/12 09:07:06;;;;;;;2.58;2.38;;;;;;;;;;4999017;28;20030;-69
2022/08/12 09:09:31;;;;;;;5.88;2.85;;;;;;;;;;4980340;28;20041;-69
2022/08/12 09:14:42;;;;;;;2.45;2.25;;;;;;;;;;5003593;28;20095;-69
2022/08/12 09:17:07;;;;;;;2.83;2.63;;;;;;;;;;5003514;28;20025;-69
2022/08/12 09:19:33;;;;;;;2.75;2.55;;;;;;;;;;4997272;28;20401;-69
2022/08/12 09:21:59;;;;;;;2.95;2.40;;;;;;;;;;4974603;28;20026;-69
2022/08/12 09:24:24;;;;;;;2.25;2.10;;;;;;;;;;5000068;28;20474;-69
2022/08/12 09:26:49;;;;;;;2.90;2.20;;;;;;;;;;4980356;28;20046;-62
2022/08/12 09:29:19;;;;;;;4.10;2.50;;;;;;;;;;4983300;28;20504;-66
2022/08/12 09:31:45;;;;;;;2.33;2.20;;;;;;;;;;4998377;28;20034;-66
2022/08/12 09:34:10;;;;;;;3.72;2.38;;;;;;;;;;5001057;28;20033;-66
2022/08/12 09:36:37;;;;;;;4.22;3.05;;;;;;;;;;5002924;28;20451;-66
2022/08/12 09:39:06;;;;;;;3.25;2.63;;;;;;;;;;4996783;28;20109;-67
2022/08/12 09:41:41;;;;;;;2.65;2.45;;;;;;;;;;4997722;28;20034;-68
2022/08/12 09:46:51;;;;;;;2.58;2.40;;;;;;;;;;5001041;28;20040;-68
2022/08/12 09:49:16;;;;;;;2.90;2.60;;;;;;;;;;5007128;28;20116;-68
2022/08/12 09:51:42;;;;;;;2.65;2.40;;;;;;;;;;5002397;28;20037;-68
2022/08/12 09:54:10;;;;;;;2.58;2.38;;;;;;;;;;4999646;28;20041;-68
2022/08/12 09:56:36;;;;;;;2.40;2.20;;;;;;;;;;5003215;28;20048;-68
2022/08/12 09:59:03;;;;;;;3.42;2.33;;;;;;;;;;4999978;28;20037;-68
2022/08/12 10:01:28;;;;;;;2.53;2.42;;;;;;;;;;5000931;28;20026;-68
2022/08/12 10:03:53;;;;;;;2.63;2.45;;;;;;;;;;4995597;28;20046;-68
2022/08/12 10:06:19;;;;;;;2.40;2.20;;;;;;;;;;5003747;28;20053;-69
2022/08/12 10:08:44;;;;;;;2.92;2.70;;;;;;;;;;4996787;28;20052;-67
2022/08/12 10:13:54;;;;;;;4.22;2.58;;;;;;;;;;4987001;28;20048;-69
2022/08/12 10:16:19;;;;;;;3.58;2.90;;;;;;;;;;5001980;28;20026;-69
2022/08/12 10:18:46;;;;;;;3.25;2.70;;;;;;;;;;5003413;28;20100;-68
2022/08/12 10:21:12;;;;;;;3.42;3.03;;;;;;;;;;5003212;28;20021;-68
2022/08/12 10:23:38;;;;;;;2.85;2.33;;;;;;;;;;4998742;28;20173;-69
2022/08/12 10:31:32;;;;;;;3.90;2.63;;;;;;;;;;5001969;28;20072;-67
2022/08/12 10:33:57;;;;;;;3.92;2.78;;;;;;;;;;4980146;28;20144;-69
2022/08/12 10:36:23;;;;;;;9.23;3.33;;;;;;;;;;5003975;28;20033;-66
2022/08/12 10:38:49;;;;;;;3.58;3.03;;;;;;;;;;4997617;28;20559;-68
2022/08/12 10:44:01;;;;;;;3.47;2.92;;;;;;;;;;4998098;28;20068;-67
2022/08/12 10:46:26;;;;;;;3.30;2.95;;;;;;;;;;4983168;28;20067;-67
2022/08/12 10:48:52;;;;;;;3.10;2.92;;;;;;;;;;4999899;28;20021;-67
2022/08/12 10:51:18;;;;;;;2.85;2.65;;;;;;;;;;4994405;28;20088;-67
2022/08/12 10:53:44;;;;;;;9.70;2.47;;;;;;;;;;5001568;28;20025;-67
2022/08/12 10:56:10;;;;;;;2.97;2.70;;;;;;;;;;4996572;28;20113;-66
2022/08/12 10:58:36;;;;;;;5.22;2.13;;;;;;;;;;4982143;28;20050;-67
2022/08/12 11:01:04;;;;;;;3.30;2.40;;;;;;;;;;4969759;28;20018;-67
2022/08/12 11:03:33;;;;;;;3.05;2.70;;;;;;;;;;5005044;28;20030;-68
2022/08/12 11:05:58;;;;;;;4.38;2.50;;;;;;;;;;5003356;28;20495;-67
2022/08/12 11:08:26;;;;;;;17.80;11.88;;;;;;;;;;4986178;28;20029;-67
2022/08/12 11:10:52;;;;;;;302.83;217.30;;;;;;;;;;4977664;28;20117;-67
2022/08/12 11:13:18;;;;;;;5.63;4.57;;;;;;;;;;5000873;28;20032;-67
2022/08/12 11:15:44;;;;;;;2.80;2.65;;;;;;;;;;4996921;28;20520;-67
2022/08/12 11:18:10;;;;;;;2.83;2.10;;;;;;;;;;4999659;28;20028;-67
2022/08/12 11:20:35;;;;;;;2.85;2.58;;;;;;;;;;5002316;28;20025;-67
2022/08/12 11:23:03;;;;;;;3.65;2.75;;;;;;;;;;4997640;28;20030;-67
2022/08/12 11:25:28;;;;;;;2.78;2.50;;;;;;;;;;4996318;28;20025;-67
2022/08/12 11:27:53;;;;;;;2.80;2.70;;;;;;;;;;4998764;28;20421;-67
2022/08/12 11:30:19;;;;;;;4.20;2.70;;;;;;;;;;4996105;28;20156;-68
2022/08/12 11:32:44;;;;;;;2.47;2.38;;;;;;;;;;4986264;28;20030;-67
2022/08/12 11:35:12;;;;;;;3.08;2.88;;;;;;;;;;5002258;28;20018;-67
2022/08/12 11:37:39;;;;;;;3.05;2.75;;;;;;;;;;4999600;28;20387;-67
2022/08/12 11:40:05;;;;;;;2.70;2.60;;;;;;;;;;4996212;28;20060;-67
2022/08/12 11:42:30;;;;;;;2.63;2.45;;;;;;;;;;4998814;28;20014;-67
2022/08/12 11:44:55;;;;;;;2.45;2.10;;;;;;;;;;4997030;28;20033;-66
2022/08/12 11:47:21;;;;;;;4.43;2.88;;;;;;;;;;4997603;28;20022;-68
2022/08/12 11:49:46;;;;;;;2.65;2.35;;;;;;;;;;4997341;28;20029;-69
2022/08/12 11:52:11;;;;;;;4.25;2.63;;;;;;;;;;4996648;28;20076;-69
2022/08/12 11:54:36;;;;;;;2.17;2.08;;;;;;;;;;4984712;28;20030;-68
2022/08/12 11:57:02;;;;;;;2.60;2.25;;;;;;;;;;4995081;28;20044;-66
2022/08/12 11:59:27;;;;;;;2.97;2.78;;;;;;;;;;5001159;28;20034;-67
2022/08/12 12:01:52;;;;;;;2.95;2.50;;;;;;;;;;5001190;28;20430;-67
2022/08/12 12:04:18;;;;;;;4.97;2.70;;;;;;;;;;5001051;28;20433;-68
2022/08/12 12:06:43;;;;;;;2.17;2.08;;;;;;;;;;5000606;28;20038;-68
2022/08/12 12:09:08;;;;;;;2.63;2.53;;;;;;;;;;4996207;28;20022;-68
2022/08/12 12:11:33;;;;;;;3.22;2.88;;;;;;;;;;4996858;28;20045;-68
2022/08/12 12:13:59;;;;;;;2.72;2.58;;;;;;;;;;5000938;28;20025;-68
2022/08/12 12:16:24;;;;;;;3.75;2.60;;;;;;;;;;4994028;28;20101;-68
2022/08/12 12:18:50;;;;;;;3.33;2.28;;;;;;;;;;4995048;28;20041;-68
2022/08/12 12:21:16;;;;;;;2.72;2.53;;;;;;;;;;4999111;28;20472;-70
2022/08/12 12:23:41;;;;;;;2.80;2.60;;;;;;;;;;4998160;28;20032;-68
2022/08/12 12:26:06;;;;;;;4.25;2.58;;;;;;;;;;4994540;28;20060;-68
2022/08/12 12:28:32;;;;;;;2.72;2.63;;;;;;;;;;4995106;28;20036;-68
2022/08/12 12:30:58;;;;;;;2.33;2.22;;;;;;;;;;4997782;28;20464;-69
2022/08/12 12:33:23;;;;;;;3.00;2.90;;;;;;;;;;4998736;28;20030;-68
2022/08/12 12:35:48;;;;;;;2.45;2.35;;;;;;;;;;4971564;28;20536;-69
2022/08/12 12:38:15;;;;;;;2.50;2.30;;;;;;;;;;4997520;28;20436;-68
2022/08/12 12:40:41;;;;;;;3.30;3.05;;;;;;;;;;4995234;28;20567;-68
2022/08/12 12:43:06;;;;;;;2.75;2.55;;;;;;;;;;4974919;28;20369;-70
2022/08/12 12:45:33;;;;;;;3.17;2.78;;;;;;;;;;5001902;28;20068;-69
2022/08/12 12:48:03;;;;;;;2.55;2.42;;;;;;;;;;5002148;28;20037;-68
2022/08/12 12:50:29;;;;;;;2.45;2.30;;;;;;;;;;5000074;28;20030;-67
2022/08/12 12:52:55;;;;;;;2.58;2.45;;;;;;;;;;4995179;28;20105;-65
2022/08/12 12:55:21;;;;;;;3.17;2.97;;;;;;;;;;4996941;28;20026;-66
2022/08/12 12:57:47;;;;;;;3.05;2.47;;;;;;;;;;4995984;28;20046;-67
2022/08/12 13:00:16;;;;;;;2.60;2.50;;;;;;;;;;4997678;28;20025;-70
2022/08/12 13:02:49;;;;;;;2.67;2.28;;;;;;;;;;4997249;28;20041;-67
2022/08/12 13:05:15;;;;;;;3.22;2.60;;;;;;;;;;4998193;28;20022;-67
2022/08/12 13:07:41;;;;;;;2.83;2.72;;;;;;;;;;4998616;28;20467;-68
2022/08/12 13:10:06;;;;;;;3.17;2.42;;;;;;;;;;4997195;28;20029;-66
2022/08/12 13:12:35;;;;;;;2.83;2.60;;;;;;;;;;5000522;28;20031;-67
2022/08/12 13:15:02;;;;;;;3.00;2.80;;;;;;;;;;4996142;28;20032;-66
2022/08/12 13:17:30;;;;;;;3.58;3.22;;;;;;;;;;5000900;28;20069;-68
2022/08/12 13:19:55;;;;;;;2.85;2.22;;;;;;;;;;5000170;28;20021;-67
2022/08/12 13:22:20;;;;;;;2.88;2.78;;;;;;;;;;5001139;28;20028;-67
2022/08/12 13:24:47;;;;;;;2.83;2.72;;;;;;;;;;5001027;28;20045;-67
2022/08/12 13:27:12;;;;;;;3.70;2.65;;;;;;;;;;4999264;28;20472;-67
2022/08/12 13:29:37;;;;;;;2.85;2.67;;;;;;;;;;5002966;28;20058;-68
2022/08/12 13:32:04;;;;;;;5.82;2.63;;;;;;;;;;4998815;28;20109;-67
2022/08/12 13:34:31;;;;;;;2.65;2.45;;;;;;;;;;5002287;28;20541;-68
2022/08/12 13:36:56;;;;;;;2.75;2.55;;;;;;;;;;4999672;28;20117;-67
2022/08/12 13:39:21;;;;;;;3.30;3.00;;;;;;;;;;5001119;28;20399;-66
2022/08/12 13:41:50;;;;;;;3.38;2.75;;;;;;;;;;4999967;28;20030;-66
2022/08/12 13:44:15;;;;;;;2.70;2.50;;;;;;;;;;4999660;28;20092;-68
2022/08/12 13:46:41;;;;;;;2.45;2.35;;;;;;;;;;5002021;28;20041;-66
2022/08/12 13:49:07;;;;;;;2.95;2.85;;;;;;;;;;4999583;28;20026;-67
2022/08/12 13:51:34;;;;;;;3.35;2.50;;;;;;;;;;5002056;28;20034;-60
2022/08/12 13:54:00;;;;;;;3.13;2.35;;;;;;;;;;4998488;28;20488;-68
2022/08/12 13:56:26;;;;;;;2.95;2.75;;;;;;;;;;4999995;28;20058;-67
2022/08/12 13:58:52;;;;;;;3.67;2.60;;;;;;;;;;4998410;28;20147;-67
2022/08/12 14:01:21;;;;;;;5.10;3.03;;;;;;;;;;5000214;28;20034;-67
2022/08/12 14:03:47;;;;;;;3.25;2.88;;;;;;;;;;4999244;28;20377;-67
2022/08/12 14:06:12;;;;;;;3.38;3.00;;;;;;;;;;4998851;28;20509;-68
2022/08/12 14:08:38;;;;;;;2.53;2.42;;;;;;;;;;4987291;28;20583;-68
2022/08/12 14:11:03;;;;;;;2.40;2.20;;;;;;;;;;4999240;28;20480;-68
2022/08/12 14:13:30;;;;;;;4.43;3.00;;;;;;;;;;5000828;28;20037;-67
2022/08/12 14:15:56;;;;;;;4.30;2.60;;;;;;;;;;4998308;28;20026;-68
2022/08/12 14:18:25;;;;;;;3.00;2.80;;;;;;;;;;4999724;28;20117;-68
2022/08/12 14:20:56;;;;;;;2.83;2.30;;;;;;;;;;4999112;28;20036;-62
2022/08/12 14:23:23;;;;;;;2.95;2.75;;;;;;;;;;4997107;28;20061;-68
2022/08/12 14:25:50;;;;;;;3.47;2.10;;;;;;;;;;5000959;28;20087;-66
2022/08/12 14:28:16;;;;;;;2.50;2.40;;;;;;;;;;4997514;28;20132;-68
2022/08/12 14:30:42;;;;;;;4.55;2.88;;;;;;;;;;5000859;28;20042;-66
2022/08/12 14:33:07;;;;;;;5.78;3.10;;;;;;;;;;4998180;28;20438;-69
2022/08/12 14:35:32;;;;;;;2.67;2.58;;;;;;;;;;4999429;28;20113;-70
2022/08/12 14:37:57;;;;;;;3.03;2.83;;;;;;;;;;5002760;28;20034;-71
2022/08/12 14:40:23;;;;;;;5.95;2.85;;;;;;;;;;4997445;28;20034;-69
2022/08/12 14:42:48;;;;;;;3.22;3.03;;;;;;;;;;4999891;28;20038;-69
2022/08/12 14:45:13;;;;;;;2.97;2.70;;;;;;;;;;4999255;28;20042;-69
2022/08/12 14:47:45;;;;;;;2.85;2.58;;;;;;;;;;4997899;28;20034;-70
2022/08/12 14:50:11;;;;;;;4.20;3.38;;;;;;;;;;5004080;28;20529;-71
2022/08/12 14:52:41;;;;;;;2.78;2.58;;;;;;;;;;5002500;28;20022;-70
2022/08/12 14:55:07;;;;;;;2.58;2.40;;;;;;;;;;5004228;28;20026;-71
2022/08/12 14:57:34;;;;;;;3.38;3.25;;;;;;;;;;5000859;28;20044;-69
2022/08/12 15:02:44;;;;;;;3.00;2.85;;;;;;;;;;4998729;28;20087;-71
2022/08/12 15:05:09;;;;;;;2.85;2.65;;;;;;;;;;4997891;28;20038;-71
2022/08/12 15:07:37;;;;;;;2.63;2.42;;;;;;;;;;4999917;28;20034;-70
2022/08/12 15:10:03;;;;;;;4.72;2.88;;;;;;;;;;4998057;28;20036;-70
2022/08/12 15:12:28;;;;;;;3.28;3.10;;;;;;;;;;4997674;28;20034;-70
2022/08/12 15:14:54;;;;;;;2.83;2.72;;;;;;;;;;4996082;28;20736;-69
2022/08/12 15:17:19;;;;;;;3.17;3.08;;;;;;;;;;4980737;28;20540;-70
2022/08/12 15:19:44;;;;;;;3.17;2.97;;;;;;;;;;4998337;28;20026;-70
2022/08/12 15:22:10;;;;;;;2.90;2.80;;;;;;;;;;5002556;28;20031;-71
2022/08/12 15:24:38;;;;;;;2.75;2.65;;;;;;;;;;5002993;28;20080;-70
2022/08/12 15:27:03;;;;;;;3.20;3.00;;;;;;;;;;5003654;28;20045;-70
2022/08/12 15:29:29;;;;;;;4.75;3.20;;;;;;;;;;5003330;28;20061;-70
2022/08/12 15:31:54;;;;;;;3.22;3.03;;;;;;;;;;4997613;28;20539;-72
2022/08/12 15:34:19;;;;;;;3.85;3.65;;;;;;;;;;4998214;28;20077;-70
2022/08/12 15:36:45;;;;;;;3.45;3.15;;;;;;;;;;5003247;28;20466;-68
2022/08/12 15:39:11;;;;;;;3.15;2.95;;;;;;;;;;4996926;28;20030;-67
2022/08/12 15:41:36;;;;;;;3.00;2.80;;;;;;;;;;4996220;28;20088;-67
2022/08/12 15:44:01;;;;;;;4.28;3.78;;;;;;;;;;4980956;28;20164;-67
2022/08/12 15:46:31;;;;;;;3.10;2.95;;;;;;;;;;4996213;28;21082;-67
2022/08/12 15:48:56;;;;;;;2.88;2.67;;;;;;;;;;4998685;28;20029;-66
2022/08/12 15:51:29;;;;;;;3.72;3.53;;;;;;;;;;4980339;28;20570;-66
2022/08/12 15:54:12;;;;;;;3.03;2.92;;;;;;;;;;4999281;28;20034;-68
2022/08/12 15:56:38;;;;;;;3.10;2.90;;;;;;;;;;4981529;28;20125;-67
2022/08/12 15:59:03;;;;;;;3.45;3.05;;;;;;;;;;4997765;28;20377;-67
2022/08/12 16:01:28;;;;;;;3.67;3.42;;;;;;;;;;4994285;28;20026;-68
2022/08/12 16:03:56;;;;;;;3.35;3.03;;;;;;;;;;4996898;28;20508;-67
2022/08/12 16:06:21;;;;;;;4.15;2.97;;;;;;;;;;4996980;28;20083;-65
2022/08/12 16:08:47;;;;;;;3.00;2.90;;;;;;;;;;4997099;28;20034;-61
2022/08/12 16:11:13;;;;;;;4.05;3.75;;;;;;;;;;4997305;28;20113;-61
2022/08/12 16:13:38;;;;;;;3.60;3.30;;;;;;;;;;4996636;28;20072;-65
2022/08/12 16:16:04;;;;;;;3.92;3.60;;;;;;;;;;5000705;28;20113;-65
2022/08/12 16:18:32;;;;;;;3.58;3.45;;;;;;;;;;5002663;28;20117;-66
2022/08/12 16:20:57;;;;;;;4.65;4.43;;;;;;;;;;4995603;28;20818;-65
2022/08/12 16:23:22;;;;;;;5.07;4.72;;;;;;;;;;4997013;28;20037;-66
2022/08/12 16:25:49;;;;;;;4.60;4.40;;;;;;;;;;4997184;28;20526;-64